Time;durP1;ratioP1;P1;durP2;ratioP2;P2;SDS_P1;SDS_P2;PMS_P1;PMS_P2;Temp;Humidity;BMP_temperature;BMP_pressure;BME280_temperature;BME280_humidity;BME280_pressure;Samples;Min_cycle;Max_cycle;Signal;HPM_P1;HPM_P2
2023/02/18 00:01:55;;;;;;;2.37;1.23;;;8.20;99.90;;;7.98;69.84;99138.66;5049136;28;20276;-63
2023/02/18 00:04:25;;;;;;;5.00;1.60;;;8.20;99.90;;;7.93;70.33;99145.59;5042070;28;20260;-62
2023/02/18 00:06:55;;;;;;;3.77;1.43;;;8.10;99.90;;;7.89;69.75;99159.34;5045990;28;20240;-64
2023/02/18 00:09:24;;;;;;;5.33;1.63;;;8.10;99.90;;;7.82;70.43;99152.59;5052964;28;20233;-63
2023/02/18 00:11:52;;;;;;;4.57;1.60;;;8.00;99.90;;;7.77;70.33;99165.50;5053466;28;20661;-64
2023/02/18 00:14:21;;;;;;;4.13;1.80;;;8.00;99.90;;;7.70;71.08;99175.00;5043339;28;20206;-65
2023/02/18 00:16:51;;;;;;;4.37;1.67;;;7.90;99.90;;;7.64;71.11;99167.38;5052984;28;20646;-64
2023/02/18 00:19:20;;;;;;;3.73;1.30;;;7.80;99.90;;;7.60;70.52;99178.53;5049905;28;20202;-64
2023/02/18 00:21:50;;;;;;;7.27;1.43;;;7.80;99.90;;;7.57;68.40;99181.13;5053751;28;20214;-62
2023/02/18 00:24:19;;;;;;;3.93;1.40;;;7.70;99.90;;;7.55;69.12;99189.72;5046850;28;20252;-65
2023/02/18 00:26:51;;;;;;;3.70;1.63;;;7.70;99.90;;;7.50;68.68;99182.09;5053874;28;20651;-64
2023/02/18 00:29:21;;;;;;;4.63;0.90;;;7.70;99.90;;;7.47;67.91;99194.94;5052448;28;20226;-64
2023/02/18 00:31:49;;;;;;;5.07;1.40;;;7.70;99.90;;;7.43;66.68;99196.69;5053204;28;20241;-64
2023/02/18 00:34:18;;;;;;;6.60;1.67;;;7.60;99.90;;;7.39;67.41;99189.06;5050723;28;20705;-67
2023/02/18 00:36:46;;;;;;;3.63;1.60;;;7.60;99.90;;;7.36;67.02;99199.34;5049939;28;20206;-64
2023/02/18 00:39:16;;;;;;;5.60;1.40;;;7.60;99.90;;;7.32;66.70;99200.25;5051946;28;20209;-65
2023/02/18 00:41:45;;;;;;;5.63;1.17;;;7.60;99.90;;;7.32;66.96;99197.69;5050374;28;20214;-63
2023/02/18 00:44:18;;;;;;;6.67;1.93;;;7.50;99.90;;;7.31;65.82;99204.53;5053481;28;20289;-63
2023/02/18 00:46:48;;;;;;;4.97;1.43;;;7.50;99.90;;;7.28;65.39;99208.84;5051419;28;20202;-62
2023/02/18 00:49:17;;;;;;;5.13;1.80;;;7.50;99.90;;;7.25;65.96;99200.34;5053973;28;20620;-62
2023/02/18 00:51:46;;;;;;;8.03;1.70;;;7.50;99.90;;;7.25;65.03;99191.78;5052124;28;20277;-63
2023/02/18 00:54:16;;;;;;;6.20;1.90;;;7.50;99.90;;;7.22;64.35;99190.13;5051622;28;20275;-66
2023/02/18 00:56:44;;;;;;;6.47;2.07;;;7.40;99.90;;;7.21;64.38;99196.09;5050258;28;20244;-62
2023/02/18 00:59:13;;;;;;;5.00;1.43;;;7.40;99.90;;;7.19;63.73;99202.97;5050401;28;20718;-62
2023/02/18 01:01:41;;;;;;;5.43;1.47;;;7.40;99.90;;;7.18;63.11;99219.22;5050757;28;20579;-62
2023/02/18 01:04:10;;;;;;;7.13;2.10;;;7.40;99.90;;;7.13;63.10;99192.78;5037678;28;20205;-63
2023/02/18 01:06:38;;;;;;;6.83;1.43;;;7.40;99.90;;;7.13;62.80;99208.16;5051235;28;20611;-63
2023/02/18 01:09:07;;;;;;;5.43;1.70;;;7.40;99.90;;;7.14;62.39;99198.75;5045628;28;20252;-62
2023/02/18 01:11:39;;;;;;;8.90;1.73;;;7.40;99.90;;;7.13;63.13;99208.16;5052756;28;20212;-62
2023/02/18 01:14:07;;;;;;;4.70;1.37;;;7.50;99.90;;;7.12;62.58;99216.72;5052440;28;20214;-64
2023/02/18 01:16:36;;;;;;;6.03;1.70;;;7.40;99.90;;;7.11;62.16;99212.47;5047871;28;20228;-63
2023/02/18 01:19:04;;;;;;;3.60;1.30;;;7.40;99.90;;;7.09;62.76;99208.22;5050631;28;20205;-64
2023/02/18 01:21:33;;;;;;;6.90;1.60;;;7.40;99.90;;;7.12;62.28;99211.59;5051779;28;20198;-62
2023/02/18 01:24:01;;;;;;;4.93;1.50;;;7.40;99.90;;;7.05;62.89;99217.63;5052665;28;20650;-64
2023/02/18 01:26:31;;;;;;;8.13;1.70;;;7.40;99.90;;;7.09;62.93;99224.41;5047048;28;20610;-65
2023/02/18 01:29:01;;;;;;;7.37;1.67;;;7.30;99.90;;;7.06;62.66;99215.94;5051408;28;20233;-62
2023/02/18 01:31:30;;;;;;;8.10;2.00;;;7.30;99.90;;;7.06;62.06;99209.09;5037780;28;20664;-64
2023/02/18 01:33:58;;;;;;;5.60;1.60;;;7.30;99.90;;;7.04;62.21;99221.06;5046469;28;20698;-65
2023/02/18 01:36:27;;;;;;;6.63;1.40;;;7.30;99.90;;;7.05;61.56;99215.06;5049765;28;20268;-63
2023/02/18 01:38:55;;;;;;;5.43;1.40;;;7.30;99.90;;;7.04;61.58;99198.03;5051355;28;20210;-62
2023/02/18 01:41:24;;;;;;;6.97;1.63;;;7.30;99.90;;;7.03;61.38;99204.00;5052290;28;20210;-62
2023/02/18 01:44:13;;;;;;;8.03;1.70;;;7.30;99.90;;;7.03;62.17;99198.88;5049574;28;20264;-64
2023/02/18 01:46:42;;;;;;;3.93;1.57;;;7.30;99.90;;;7.02;62.10;99199.75;5051071;28;20256;-63
2023/02/18 01:49:13;;;;;;;10.90;2.07;;;7.30;99.90;;;7.00;62.54;99199.78;5047858;28;20225;-62
2023/02/18 01:51:47;;;;;;;7.03;1.77;;;7.30;99.90;;;6.96;62.44;99199.81;5049690;28;20233;-62
2023/02/18 01:54:23;;;;;;;7.27;1.33;;;7.20;99.90;;;6.95;62.57;99198.94;5052431;28;20221;-62
2023/02/18 01:56:57;;;;;;;3.87;1.53;;;7.20;99.90;;;6.94;62.31;99181.06;5049070;28;20244;-63
2023/02/18 01:59:31;;;;;;;4.47;1.50;;;7.20;99.90;;;6.92;62.56;99180.22;5051270;28;20202;-64
2023/02/18 02:02:00;;;;;;;7.20;1.50;;;7.20;99.90;;;6.92;62.86;99185.31;5049192;28;20638;-63
2023/02/18 02:04:28;;;;;;;5.43;1.30;;;7.20;99.90;;;6.92;63.40;99188.75;5049480;28;20194;-63
2023/02/18 02:06:57;;;;;;;7.33;1.50;;;7.20;99.90;;;6.91;63.08;99187.03;5048326;28;20206;-62
2023/02/18 02:09:28;;;;;;;5.27;1.57;;;7.10;99.90;;;6.91;62.60;99181.94;5052131;28;20304;-64
2023/02/18 02:12:40;;;;;;;4.47;1.70;;;7.20;99.90;;;6.90;62.59;99179.41;5050145;28;20210;-60
2023/02/18 02:15:42;;;;;;;5.93;1.73;;;7.10;99.90;;;6.89;63.10;99177.72;5021784;28;20237;-63
2023/02/18 02:18:39;;;;;;;5.73;1.50;;;7.10;99.90;;;6.85;62.62;99171.75;5046962;28;20193;-62
2023/02/18 02:21:40;;;;;;;7.37;1.63;;;7.10;99.90;;;6.80;63.58;99172.66;5041433;28;20214;-62
2023/02/18 02:25:01;;;;;;;5.87;1.30;;;7.10;99.90;;;6.74;62.77;99160.78;5047375;28;20251;-63
2023/02/18 02:28:08;;;;;;;8.73;1.83;;;7.00;99.90;;;6.70;63.41;99167.66;5048640;28;20220;-62
2023/02/18 02:31:25;;;;;;;7.80;1.37;;;6.90;99.90;;;6.63;62.58;99163.47;5053116;28;20228;-64
2023/02/18 02:34:39;;;;;;;4.93;1.57;;;6.90;99.90;;;6.59;62.25;99166.91;5046332;28;20243;-63
2023/02/18 02:37:16;;;;;;;5.83;1.60;;;6.90;99.90;;;6.58;62.81;99157.50;5048019;28;20604;-64
2023/02/18 02:40:03;;;;;;;5.60;1.43;;;6.80;99.90;;;6.53;63.24;99185.72;5052761;28;20636;-61
2023/02/18 02:42:46;;;;;;;7.07;1.60;;;6.80;99.90;;;6.50;62.69;99190.00;5050435;28;20198;-62
2023/02/18 02:45:26;;;;;;;8.17;1.83;;;6.80;99.90;;;6.49;62.60;99165.28;5052413;28;20632;-64
2023/02/18 02:48:05;;;;;;;5.60;1.40;;;6.80;99.90;;;6.47;62.90;99190.03;5053266;28;20202;-64
2023/02/18 02:50:42;;;;;;;6.43;1.90;;;6.70;99.90;;;6.48;62.70;99174.69;5054810;28;20799;-64
2023/02/18 02:53:19;;;;;;;6.10;1.53;;;6.70;99.90;;;6.47;62.76;99202.81;5053149;28;20206;-62
2023/02/18 02:55:47;;;;;;;8.50;1.60;;;6.70;99.90;;;6.46;62.70;99201.16;5054166;28;20253;-61
2023/02/18 02:58:19;;;;;;;6.83;1.90;;;6.70;99.90;;;6.44;63.45;99210.53;5051439;28;20647;-62
2023/02/18 03:01:10;;;;;;;9.50;1.80;;;6.70;99.90;;;6.43;63.00;99213.97;5050334;28;20815;-62
2023/02/18 03:04:22;;;;;;;10.40;1.47;;;6.70;99.90;;;6.43;62.76;99196.03;5053503;28;20225;-63
2023/02/18 03:07:33;;;;;;;8.83;1.80;;;6.70;99.90;;;6.41;63.28;99215.69;5040677;28;20275;-61
2023/02/18 03:10:28;;;;;;;9.60;1.50;;;6.70;99.90;;;6.38;63.07;99215.72;5053483;28;20241;-64
2023/02/18 03:13:07;;;;;;;6.27;1.80;;;6.70;99.90;;;6.38;63.95;99218.28;5054133;28;20201;-64
2023/02/18 03:15:43;;;;;;;9.07;1.73;;;6.60;99.90;;;6.36;63.69;99215.72;5049833;28;20745;-65
2023/02/18 03:18:20;;;;;;;6.20;1.57;;;6.60;99.90;;;6.34;63.84;99239.63;5048136;28;20650;-63
2023/02/18 03:20:55;;;;;;;6.57;1.83;;;6.60;99.90;;;6.34;63.93;99219.16;5054793;28;20213;-63
2023/02/18 03:23:32;;;;;;;7.90;1.67;;;6.60;99.90;;;6.31;63.34;99219.19;5056491;28;20198;-62
2023/02/18 03:26:04;;;;;;;6.53;1.80;;;6.60;99.90;;;6.27;63.67;99226.88;5051993;28;20220;-62
2023/02/18 03:28:33;;;;;;;9.60;1.90;;;6.60;99.90;;;6.24;63.46;99219.22;5055063;28;20312;-64
2023/02/18 03:31:09;;;;;;;5.90;1.67;;;6.50;99.90;;;6.23;63.98;99222.66;5056761;28;20202;-64
2023/02/18 03:33:44;;;;;;;7.30;1.63;;;6.50;99.90;;;6.24;63.70;99233.72;5049862;28;20245;-64
2023/02/18 03:36:14;;;;;;;4.50;1.40;;;6.50;99.90;;;6.21;63.37;99249.94;5055308;28;20229;-63
2023/02/18 03:38:51;;;;;;;8.50;2.20;;;6.50;99.90;;;6.18;63.00;99241.44;5059672;28;20217;-63
2023/02/18 03:41:20;;;;;;;6.10;1.47;;;6.50;99.90;;;6.16;63.54;99241.44;5055323;28;20198;-64
2023/02/18 03:43:52;;;;;;;5.17;1.50;;;6.40;99.90;;;6.16;63.04;99238.88;5055913;28;20256;-63
2023/02/18 03:46:21;;;;;;;5.20;1.47;;;6.40;99.90;;;6.15;63.43;99247.44;5054687;28;20210;-63
2023/02/18 03:48:50;;;;;;;6.83;1.20;;;6.40;99.90;;;6.13;64.03;99246.59;5052660;28;20222;-67
2023/02/18 03:51:18;;;;;;;8.87;1.43;;;6.40;99.90;;;6.11;63.61;99248.28;5050168;28;20679;-68
2023/02/18 03:53:48;;;;;;;4.60;1.33;;;6.40;99.90;;;6.12;63.57;99234.66;5055533;28;20209;-69
2023/02/18 03:56:17;;;;;;;6.40;1.83;;;6.40;99.90;;;6.12;62.91;99250.00;5053945;28;20236;-67
2023/02/18 03:58:46;;;;;;;5.50;1.50;;;6.40;99.90;;;6.10;62.82;99223.56;5055360;28;20495;-68
2023/02/18 04:01:15;;;;;;;9.43;2.10;;;6.40;99.90;;;6.05;63.52;99259.41;5053297;28;20210;-68
2023/02/18 04:03:44;;;;;;;8.70;1.73;;;6.40;99.90;;;6.08;63.42;99250.88;5053641;28;20202;-68
2023/02/18 04:06:13;;;;;;;6.07;1.47;;;6.30;99.90;;;6.06;63.41;99267.94;5053087;28;20202;-68
2023/02/18 04:08:42;;;;;;;7.20;1.67;;;6.30;99.90;;;6.03;63.31;99267.94;5052582;28;20244;-68
2023/02/18 04:11:11;;;;;;;6.80;1.70;;;6.30;99.90;;;6.00;63.78;99275.63;5053947;28;20206;-70
2023/02/18 04:13:40;;;;;;;10.03;1.87;;;6.30;99.90;;;5.97;63.76;99265.44;5052086;28;20651;-67
2023/02/18 04:16:09;;;;;;;10.90;2.00;;;6.30;99.90;;;5.99;63.61;99261.16;5054184;28;20214;-70
2023/02/18 04:18:38;;;;;;;6.37;1.93;;;6.30;99.90;;;5.97;63.57;99270.56;5053546;28;20310;-67
2023/02/18 04:21:06;;;;;;;9.73;1.87;;;6.30;99.90;;;5.95;63.80;99267.16;5053185;28;20658;-69
2023/02/18 04:23:35;;;;;;;4.87;1.47;;;6.20;99.90;;;5.94;63.72;99258.63;5045899;28;20265;-69
2023/02/18 04:26:04;;;;;;;4.87;1.70;;;6.20;99.90;;;5.94;63.84;99252.66;5053654;28;20210;-72
2023/02/18 04:28:35;;;;;;;6.60;1.80;;;6.20;99.90;;;5.95;64.04;99270.53;5052796;28;20225;-70
2023/02/18 04:31:03;;;;;;;6.27;1.67;;;6.20;99.90;;;5.93;63.73;99267.16;5055669;28;20206;-67
2023/02/18 04:33:32;;;;;;;8.93;1.97;;;6.20;99.90;;;5.91;64.44;99270.53;5055422;28;20337;-71
2023/02/18 04:36:01;;;;;;;6.97;1.43;;;6.20;99.90;;;5.93;63.39;99281.63;5055026;28;20440;-68
2023/02/18 04:38:29;;;;;;;4.57;1.40;;;6.20;99.90;;;5.92;63.64;99269.69;5055092;28;20206;-69
2023/02/18 04:40:58;;;;;;;6.63;1.60;;;6.20;99.90;;;5.89;63.70;99275.69;5052666;28;20213;-68
2023/02/18 04:43:26;;;;;;;9.93;2.07;;;6.20;99.90;;;5.88;63.68;99273.97;5053085;28;20625;-67
2023/02/18 04:45:56;;;;;;;8.43;2.20;;;6.10;99.90;;;5.85;63.71;99285.91;5053445;28;20206;-67
2023/02/18 04:48:25;;;;;;;8.53;2.10;;;6.20;99.90;;;5.84;63.84;99269.72;5053935;28;20209;-69
2023/02/18 04:50:54;;;;;;;9.23;2.03;;;6.10;99.90;;;5.82;63.85;99271.47;5052293;28;20210;-69
2023/02/18 04:53:22;;;;;;;8.23;1.87;;;6.10;99.90;;;5.81;63.80;99265.47;5054631;28;20621;-67
2023/02/18 04:55:52;;;;;;;7.90;1.83;;;6.10;99.90;;;5.78;63.77;99265.50;5049845;28;20236;-68
2023/02/18 04:58:21;;;;;;;7.03;1.60;;;6.10;99.90;;;5.75;63.87;99260.41;5053346;28;20248;-67
2023/02/18 05:00:53;;;;;;;4.83;1.50;;;6.10;99.90;;;5.76;63.92;99279.13;5051305;28;20292;-69
2023/02/18 05:03:23;;;;;;;7.93;1.57;;;6.00;99.90;;;5.76;63.76;99271.47;5054328;28;20289;-69
2023/02/18 05:05:51;;;;;;;4.27;1.50;;;6.00;99.90;;;5.74;63.96;99279.16;5052882;28;20206;-68
2023/02/18 05:08:20;;;;;;;6.67;1.73;;;6.00;99.90;;;5.72;63.92;99305.56;5053706;28;20322;-67
2023/02/18 05:10:49;;;;;;;7.60;2.00;;;6.00;99.90;;;5.71;63.92;99289.38;5052634;28;20201;-68
2023/02/18 05:13:17;;;;;;;3.93;1.37;;;6.00;99.90;;;5.70;63.57;99295.34;5046440;28;20249;-67
2023/02/18 05:15:46;;;;;;;6.37;1.70;;;6.00;99.90;;;5.71;63.74;99306.44;5049253;28;20682;-69
2023/02/18 05:18:14;;;;;;;8.63;1.80;;;6.00;99.90;;;5.69;63.66;99278.31;5053982;28;20213;-69
2023/02/18 05:20:45;;;;;;;5.53;1.80;;;5.90;99.90;;;5.67;63.64;99285.16;5052731;28;20220;-68
2023/02/18 05:23:14;;;;;;;9.17;2.17;;;5.90;99.90;;;5.65;64.04;99299.63;5052161;28;20256;-68
2023/02/18 05:25:43;;;;;;;7.00;1.77;;;5.90;99.90;;;5.64;64.01;99300.50;5052501;28;20509;-69
2023/02/18 05:28:12;;;;;;;7.60;1.90;;;5.90;99.90;;;5.63;64.35;99298.78;5051536;28;20236;-70
2023/02/18 05:30:40;;;;;;;7.47;1.20;;;5.90;99.90;;;5.63;63.88;99296.22;5051047;28;20217;-69
2023/02/18 05:33:09;;;;;;;7.73;1.47;;;5.90;99.90;;;5.61;63.79;99307.31;5052820;28;20740;-68
2023/02/18 05:35:38;;;;;;;6.57;1.70;;;5.90;99.90;;;5.58;63.94;99295.41;5052526;28;20225;-69
2023/02/18 05:38:08;;;;;;;11.07;2.10;;;5.90;99.90;;;5.60;64.11;99313.25;5052686;28;20206;-70
2023/02/18 05:40:37;;;;;;;6.43;1.63;;;5.90;99.90;;;5.58;63.99;99315.84;5051003;28;20213;-69
2023/02/18 05:43:06;;;;;;;9.97;1.83;;;5.90;99.90;;;5.55;63.96;99323.50;5052457;28;20597;-69
2023/02/18 05:45:34;;;;;;;7.57;1.73;;;5.80;99.90;;;5.55;64.32;99326.06;5050856;28;20205;-69
2023/02/18 05:48:03;;;;;;;5.30;1.37;;;5.90;99.90;;;5.55;64.41;99320.94;5049927;28;20202;-69
2023/02/18 05:50:32;;;;;;;8.20;1.97;;;5.90;99.90;;;5.54;64.59;99317.53;5049791;28;20209;-70
2023/02/18 05:53:01;;;;;;;9.37;2.13;;;5.80;99.90;;;5.52;64.48;99319.28;5052634;28;20221;-68
2023/02/18 05:55:32;;;;;;;6.60;2.03;;;5.80;99.90;;;5.52;64.44;99319.28;5052511;28;20760;-68
2023/02/18 05:58:00;;;;;;;9.63;2.03;;;5.80;99.90;;;5.51;64.82;99322.66;5052368;28;20209;-68
2023/02/18 06:00:30;;;;;;;9.27;1.83;;;5.80;99.90;;;5.52;64.61;99332.06;5049167;28;20240;-69
2023/02/18 06:02:59;;;;;;;10.40;1.70;;;5.80;99.90;;;5.54;64.76;99334.59;5045986;28;20205;-69
2023/02/18 06:05:28;;;;;;;5.70;2.00;;;5.80;99.90;;;5.55;64.93;99329.47;5052007;28;20208;-62
2023/02/18 06:07:57;;;;;;;7.33;1.60;;;5.80;99.90;;;5.55;64.75;99333.72;5047558;28;20293;-62
2023/02/18 06:10:25;;;;;;;8.43;1.90;;;5.90;99.90;;;5.56;64.83;99330.34;5052011;28;20210;-62
2023/02/18 06:12:55;;;;;;;6.83;2.07;;;5.80;99.90;;;5.55;64.49;99328.63;5053858;28;20650;-61
2023/02/18 06:15:24;;;;;;;8.00;1.40;;;5.80;99.90;;;5.55;64.40;99329.47;5052985;28;20206;-63
2023/02/18 06:17:52;;;;;;;12.60;1.67;;;5.90;99.90;;;5.57;64.49;99349.91;5050993;28;20209;-65
2023/02/18 06:20:21;;;;;;;8.17;1.73;;;5.90;99.90;;;5.60;63.99;99347.38;5050492;28;20304;-65
2023/02/18 06:22:49;;;;;;;6.87;1.87;;;5.90;99.90;;;5.60;63.90;99351.59;5048080;28;20198;-65
2023/02/18 06:25:18;;;;;;;5.67;1.60;;;6.00;99.90;;;5.58;63.70;99344.78;5052871;28;20210;-64
2023/02/18 06:27:46;;;;;;;8.93;1.57;;;5.90;99.90;;;5.61;63.89;99343.94;5052168;28;20724;-65
2023/02/18 06:30:17;;;;;;;5.80;1.60;;;5.90;99.90;;;5.61;63.97;99349.06;5052640;28;20205;-65
2023/02/18 06:32:46;;;;;;;7.20;1.90;;;5.90;99.90;;;5.61;63.84;99359.28;5049156;28;20658;-63
2023/02/18 06:35:14;;;;;;;12.03;2.43;;;5.90;99.90;;;5.63;63.84;99366.91;5050165;28;20710;-63
2023/02/18 06:37:43;;;;;;;6.57;1.40;;;5.90;99.90;;;5.63;63.30;99357.53;5052255;28;20229;-65
2023/02/18 06:40:13;;;;;;;6.23;1.97;;;5.90;99.90;;;5.63;63.33;99375.44;5046960;28;20205;-64
2023/02/18 06:42:41;;;;;;;5.00;1.57;;;5.90;99.90;;;5.65;63.20;99380.56;5046416;28;20287;-64
2023/02/18 06:45:10;;;;;;;6.90;2.10;;;5.90;99.90;;;5.63;63.55;99357.53;5052390;28;20578;-64
2023/02/18 06:47:40;;;;;;;6.23;1.70;;;5.90;99.90;;;5.64;63.69;99368.66;5047916;28;20210;-62
2023/02/18 06:50:10;;;;;;;5.63;1.47;;;5.90;99.90;;;5.65;63.36;99389.06;5052757;28;20198;-63
2023/02/18 06:52:38;;;;;;;7.10;1.77;;;5.90;99.90;;;5.65;63.32;99386.53;5053216;28;20206;-63
2023/02/18 06:55:09;;;;;;;6.87;1.90;;;5.90;99.90;;;5.65;63.84;99386.53;5053607;28;20720;-64
2023/02/18 06:57:37;;;;;;;7.50;2.43;;;5.90;99.90;;;5.65;63.62;99393.34;5052780;28;20218;-65
2023/02/18 07:00:08;;;;;;;7.50;1.70;;;5.90;99.90;;;5.64;63.31;99395.06;5051346;28;20210;-63
2023/02/18 07:02:36;;;;;;;12.33;2.00;;;5.90;99.90;;;5.67;63.24;99400.16;5052919;28;20209;-63
2023/02/18 07:05:07;;;;;;;9.70;1.73;;;6.00;99.90;;;5.70;63.47;99394.16;5048490;28;20236;-62
2023/02/18 07:07:36;;;;;;;8.87;2.37;;;6.00;99.90;;;5.70;63.21;99396.72;5042589;28;20209;-63
2023/02/18 07:10:06;;;;;;;11.60;1.90;;;6.00;99.90;;;5.71;63.23;99380.56;5052429;28;20236;-61
2023/02/18 07:12:35;;;;;;;13.70;2.03;;;6.00;99.90;;;5.76;63.17;99392.47;5049939;28;20217;-65
2023/02/18 07:15:04;;;;;;;10.03;2.00;;;6.10;99.90;;;5.79;62.86;99384.78;5054946;28;20206;-62
2023/02/18 07:17:32;;;;;;;4.17;1.47;;;6.10;99.90;;;5.88;62.86;99388.16;5048509;28;20288;-62
2023/02/18 07:20:01;;;;;;;11.60;1.97;;;6.10;99.90;;;5.94;62.29;99395.84;5055373;28;20638;-64
2023/02/18 07:22:31;;;;;;;5.77;1.67;;;6.20;99.90;;;5.96;62.08;99389.00;5055300;28;20202;-64
2023/02/18 07:24:59;;;;;;;8.97;2.00;;;6.20;99.90;;;5.97;62.37;99386.47;5055373;28;20677;-64
2023/02/18 07:27:28;;;;;;;8.67;2.00;;;6.20;99.90;;;5.97;62.46;99383.06;5052289;28;20216;-65
2023/02/18 07:29:57;;;;;;;12.57;2.03;;;6.30;99.90;;;6.01;61.89;99390.72;5049635;28;20245;-66
2023/02/18 07:32:25;;;;;;;4.30;1.40;;;6.30;99.90;;;6.05;62.56;99401.78;5052629;28;20338;-63
2023/02/18 07:34:54;;;;;;;5.27;1.70;;;6.30;99.90;;;6.08;61.50;99385.59;5052132;28;20210;-66
2023/02/18 07:37:23;;;;;;;6.43;1.83;;;6.30;99.90;;;6.08;62.05;99394.09;5048864;28;20222;-66
2023/02/18 07:39:53;;;;;;;7.20;1.87;;;6.30;99.90;;;6.20;62.02;99390.63;5056021;28;20297;-65
2023/02/18 07:42:22;;;;;;;4.00;1.77;;;6.50;99.90;;;6.28;61.42;99381.22;5056890;28;20207;-64
2023/02/18 07:44:51;;;;;;;9.00;2.60;;;6.50;99.90;;;6.39;61.64;99381.16;5056452;28;20269;-64
2023/02/18 07:47:19;;;;;;;8.93;2.43;;;6.70;99.90;;;6.54;60.75;99391.31;5057061;28;20213;-66
2023/02/18 07:49:48;;;;;;;11.70;2.13;;;6.80;99.90;;;6.59;60.97;99396.38;5051558;28;20257;-66
2023/02/18 07:52:16;;;;;;;8.63;2.10;;;6.90;99.90;;;6.61;60.56;99402.38;5053222;28;20666;-64
2023/02/18 07:54:45;;;;;;;10.07;1.90;;;6.90;99.90;;;6.68;59.91;99399.75;5052634;28;20206;-66
2023/02/18 07:57:15;;;;;;;9.77;2.10;;;7.00;99.90;;;6.74;60.03;99398.88;5050695;28;20325;-66
2023/02/18 07:59:44;;;;;;;8.70;2.23;;;7.00;99.90;;;6.75;59.30;99391.19;5052319;28;20210;-67
2023/02/18 08:02:19;;;;;;;9.43;3.90;;;7.00;99.90;;;6.75;58.78;99401.41;5041461;28;20210;-65
2023/02/18 08:04:50;;;;;;;4.50;1.80;;;7.00;99.90;;;6.75;58.98;99410.81;5051226;28;20609;-66
2023/02/18 08:07:21;;;;;;;7.87;1.97;;;7.00;99.90;;;6.73;59.03;99392.88;5042422;28;20276;-66
2023/02/18 08:09:50;;;;;;;8.17;2.40;;;7.00;99.90;;;6.68;58.22;99402.31;5050782;28;20214;-72
2023/02/18 08:12:20;;;;;;;8.20;2.13;;;6.90;99.90;;;6.65;58.95;99404.88;5054225;28;20210;-63
2023/02/18 08:14:50;;;;;;;10.37;2.17;;;6.90;99.90;;;6.62;58.46;99404.91;5055134;28;20203;-65
2023/02/18 08:17:18;;;;;;;10.53;2.33;;;6.90;99.90;;;6.65;59.68;99412.56;5054429;28;20222;-67
2023/02/18 08:19:47;;;;;;;8.63;2.10;;;7.00;99.90;;;6.66;59.62;99411.69;5049897;28;20198;-68
2023/02/18 08:22:16;;;;;;;7.90;2.03;;;7.00;99.90;;;6.70;59.93;99409.97;5048668;28;20210;-68
2023/02/18 08:24:44;;;;;;;8.73;1.93;;;7.00;99.90;;;6.73;59.85;99415.94;5045817;28;20230;-66
2023/02/18 08:27:13;;;;;;;6.33;2.07;;;7.00;99.90;;;6.76;58.86;99413.34;5052755;28;20194;-65
2023/02/18 08:29:43;;;;;;;6.90;2.33;;;7.00;99.90;;;6.80;58.43;99413.34;5054693;28;20230;-65
2023/02/18 08:32:11;;;;;;;6.57;2.40;;;7.10;99.90;;;6.85;59.42;99420.16;5054246;28;20206;-69
2023/02/18 08:34:40;;;;;;;13.30;2.43;;;7.20;99.90;;;6.92;58.75;99410.69;5055396;28;20241;-65
2023/02/18 08:37:09;;;;;;;8.63;2.33;;;7.20;99.90;;;6.97;59.01;99406.41;5050986;28;20226;-68
2023/02/18 08:39:39;;;;;;;7.57;2.00;;;7.20;99.90;;;7.04;58.35;99402.94;5052780;28;20210;-67
2023/02/18 08:42:08;;;;;;;8.30;2.20;;;7.30;99.90;;;7.08;57.72;99408.88;5050675;28;21252;-66
2023/02/18 08:44:37;;;;;;;7.80;2.20;;;7.30;99.90;;;7.10;57.21;99405.44;5044457;28;20217;-66
2023/02/18 08:47:07;;;;;;;8.67;2.13;;;7.30;99.90;;;7.09;57.98;99416.53;5052382;28;20205;-66
2023/02/18 08:49:55;;;;;;;11.00;2.07;;;7.40;99.90;;;7.09;58.51;99419.09;5051042;28;20710;-65
2023/02/18 08:52:25;;;;;;;6.50;2.13;;;7.40;99.90;;;7.11;58.08;99430.19;5052699;28;20228;-68
2023/02/18 08:54:53;;;;;;;9.20;2.20;;;7.40;99.90;;;7.14;57.63;99432.75;5053919;28;20214;-67
2023/02/18 08:57:22;;;;;;;6.17;2.13;;;7.40;99.90;;;7.18;57.50;99421.63;5055160;28;20222;-67
2023/02/18 08:59:51;;;;;;;7.57;2.07;;;7.50;99.90;;;7.21;56.53;99423.28;5049318;28;20206;-67
2023/02/18 09:02:21;;;;;;;7.77;1.97;;;7.40;99.90;;;7.23;56.52;99434.38;5053704;28;20201;-70
2023/02/18 09:04:50;;;;;;;10.67;2.17;;;7.50;99.90;;;7.29;56.35;99430.91;5048312;28;20261;-74
2023/02/18 09:07:19;;;;;;;8.63;1.77;;;7.50;99.90;;;7.38;55.09;99434.25;5053445;28;20201;-73
2023/02/18 09:09:48;;;;;;;6.57;1.63;;;7.50;99.90;;;7.43;56.01;99435.03;5055247;28;20305;-68
2023/02/18 09:12:16;;;;;;;7.10;2.00;;;7.70;99.90;;;7.46;55.08;99426.50;5051213;28;20650;-68
2023/02/18 09:14:48;;;;;;;10.57;2.10;;;7.70;99.90;;;7.43;55.76;99442.75;5053016;28;20255;-66
2023/02/18 09:17:16;;;;;;;7.87;2.20;;;7.70;99.90;;;7.49;56.10;99441.84;5046378;28;20285;-70
2023/02/18 09:19:47;;;;;;;6.37;1.63;;;7.80;99.90;;;7.53;55.79;99448.66;5055420;28;20665;-71
2023/02/18 09:22:16;;;;;;;9.17;1.87;;;7.80;99.90;;;7.52;55.21;99453.81;5053536;28;20647;-72
2023/02/18 09:24:47;;;;;;;6.83;2.33;;;7.80;99.90;;;7.55;55.01;99452.06;5053483;28;20637;-71
2023/02/18 09:27:16;;;;;;;13.50;2.27;;;7.80;99.90;;;7.63;55.45;99459.69;5052338;28;20240;-72
2023/02/18 09:29:47;;;;;;;8.37;2.60;;;7.80;99.90;;;7.76;54.84;99466.38;5059517;28;20218;-73
2023/02/18 09:32:16;;;;;;;6.97;2.13;;;8.00;99.90;;;7.82;53.38;99479.16;5042450;28;20202;-67
2023/02/18 09:35:01;;;;;;;8.20;2.00;;;8.00;99.90;;;7.81;52.90;99459.50;5051126;28;20355;-71
2023/02/18 09:37:30;;;;;;;9.53;2.60;;;8.10;99.90;;;7.87;53.44;99464.56;5047089;28;20224;-69
2023/02/18 09:39:58;;;;;;;7.17;1.93;;;8.20;99.90;;;7.86;53.11;99465.44;5047162;28;20567;-69
2023/02/18 09:42:34;;;;;;;8.80;2.10;;;8.10;99.90;;;7.80;52.52;99459.50;5041145;28;20205;-66
2023/02/18 09:45:07;;;;;;;4.83;1.63;;;8.10;99.90;;;7.75;52.87;99468.09;5052089;28;20259;-63
2023/02/18 09:47:38;;;;;;;5.77;2.07;;;8.10;99.90;;;7.70;52.20;99464.72;5042935;28;20202;-65
2023/02/18 09:50:16;;;;;;;6.20;2.07;;;8.00;99.90;;;7.69;51.82;99475.84;5046033;28;20206;-64
2023/02/18 09:52:44;;;;;;;6.97;2.20;;;7.90;99.90;;;7.69;52.01;99477.56;5054796;28;20630;-66
2023/02/18 09:55:23;;;;;;;10.67;3.07;;;7.90;99.90;;;7.68;53.08;99484.41;5052621;28;20620;-67
2023/02/18 09:57:55;;;;;;;5.80;1.80;;;7.90;99.90;;;7.65;52.06;99493.81;5052178;28;20226;-64
2023/02/18 10:00:32;;;;;;;6.37;1.83;;;7.90;99.90;;;7.60;53.25;99490.47;5048500;28;20216;-62
2023/02/18 10:03:05;;;;;;;6.17;1.40;;;7.80;99.90;;;7.58;52.76;99480.22;5052683;28;20618;-64
2023/02/18 10:05:37;;;;;;;9.03;2.10;;;7.80;99.90;;;7.54;54.00;99486.22;5052754;28;20198;-69
2023/02/18 10:08:16;;;;;;;7.00;1.93;;;7.80;99.90;;;7.47;53.73;99492.25;5055961;28;20214;-75
2023/02/18 10:10:48;;;;;;;7.97;2.00;;;7.70;99.90;;;7.40;54.14;99500.84;5050386;28;20283;-70
2023/02/18 10:13:20;;;;;;;9.77;1.93;;;7.60;99.90;;;7.36;53.87;99505.16;5057918;28;20272;-71
2023/02/18 10:15:50;;;;;;;7.17;2.20;;;7.60;99.90;;;7.38;54.43;99497.47;5053636;28;20232;-70
2023/02/18 10:18:27;;;;;;;6.30;1.87;;;7.60;99.90;;;7.34;54.12;99501.78;5044711;28;20231;-69
2023/02/18 10:21:12;;;;;;;5.60;1.80;;;7.60;99.90;;;7.36;54.37;99505.16;5054553;28;20201;-72
2023/02/18 10:23:47;;;;;;;9.77;2.07;;;7.70;99.90;;;7.49;53.74;99498.25;5047709;28;20229;-71
2023/02/18 10:26:18;;;;;;;10.97;2.30;;;7.80;99.90;;;7.67;53.23;99500.66;5053251;28;20312;-70
2023/02/18 10:28:47;;;;;;;8.60;2.27;;;7.90;99.90;;;7.68;52.89;99497.22;5044453;28;20231;-72
2023/02/18 10:31:20;;;;;;;6.13;1.97;;;7.90;99.90;;;7.71;52.93;99494.63;5057579;28;20193;-71
2023/02/18 10:33:59;;;;;;;7.90;2.20;;;7.90;99.90;;;7.91;52.98;99491.03;5063339;28;20248;-71
2023/02/18 10:36:37;;;;;;;5.17;2.20;;;8.20;99.90;;;8.03;51.98;99490.94;5059716;28;20202;-69
2023/02/18 10:39:41;;;;;;;7.00;2.20;;;8.20;99.90;;;8.29;51.39;99479.53;5057365;28;20214;-71
2023/02/18 10:42:32;;;;;;;5.63;1.97;;;8.50;99.90;;;8.50;51.33;99476.72;5042583;28;20206;-70
2023/02/18 10:45:16;;;;;;;7.77;2.10;;;8.70;99.90;;;8.61;50.86;99487.69;5057790;28;20202;-69
2023/02/18 10:48:03;;;;;;;7.83;2.20;;;8.80;99.90;;;8.68;50.73;99479.06;5063418;28;20206;-66
2023/02/18 10:50:37;;;;;;;9.00;2.30;;;8.90;99.90;;;8.75;49.75;99466.13;5049274;28;20208;-68
2023/02/18 10:53:14;;;;;;;8.87;2.40;;;9.00;99.90;;;8.79;50.87;99462.66;5056699;28;20251;-67
2023/02/18 10:55:45;;;;;;;7.13;1.97;;;9.10;99.90;;;8.78;49.44;99451.53;5058839;28;20646;-71